createdAt,value
2023-04-14T00:00:20.439Z,1.30
2023-04-14T00:03:11.069Z,1.30
2023-04-14T00:05:41.564Z,1.20
2023-04-14T00:08:12.415Z,1.90
2023-04-14T00:10:42.816Z,1.60
2023-04-14T00:13:13.087Z,1.40
2023-04-14T00:15:45.878Z,2.00
2023-04-14T00:18:16.624Z,1.10
2023-04-14T00:20:49.103Z,1.70
2023-04-14T00:23:19.379Z,1.20
2023-04-14T00:25:51.485Z,2.00
2023-04-14T00:28:21.702Z,1.70
2023-04-14T00:30:52.116Z,2.10
2023-04-14T00:33:22.509Z,1.40
2023-04-14T00:35:53.287Z,1.60
2023-04-14T00:38:23.717Z,1.10
2023-04-14T00:40:53.902Z,1.40
2023-04-14T00:43:25.150Z,1.20
2023-04-14T00:45:55.490Z,1.90
2023-04-14T00:48:25.746Z,1.30
2023-04-14T00:50:56.241Z,1.50
2023-04-14T00:53:27.423Z,1.40
2023-04-14T00:56:00.802Z,1.40
2023-04-14T00:58:35.750Z,1.40
2023-04-14T01:01:07.829Z,1.70
2023-04-14T01:03:38.300Z,2.00
2023-04-14T01:06:09.457Z,1.70
2023-04-14T01:08:40.091Z,1.90
2023-04-14T01:11:17.478Z,1.80
2023-04-14T01:16:23.874Z,1.70
2023-04-14T01:19:02.312Z,2.10
2023-04-14T01:21:39.022Z,1.90
2023-04-14T01:24:40.781Z,1.50
2023-04-14T01:27:27.319Z,1.20
2023-04-14T01:30:17.173Z,1.30
2023-04-14T01:32:49.581Z,1.70
2023-04-14T01:35:24.767Z,2.10
2023-04-14T01:37:58.269Z,1.70
2023-04-14T01:40:30.973Z,1.50
2023-04-14T01:43:03.026Z,1.80
2023-04-14T01:45:39.097Z,1.40
2023-04-14T01:48:09.724Z,1.60
2023-04-14T01:50:42.728Z,1.40
2023-04-14T01:53:14.451Z,1.80
2023-04-14T01:55:48.130Z,1.90
2023-04-14T01:58:20.285Z,2.10
2023-04-14T02:00:51.386Z,1.60
2023-04-14T02:03:22.055Z,2.20
2023-04-14T02:05:53.621Z,1.80
2023-04-14T02:08:25.664Z,1.50
2023-04-14T02:10:57.506Z,1.90
2023-04-14T02:13:28.979Z,1.80
2023-04-14T02:15:59.770Z,1.50
2023-04-14T02:18:33.442Z,1.50
2023-04-14T02:21:06.759Z,1.30
2023-04-14T02:23:37.396Z,1.60
2023-04-14T02:26:11.611Z,1.50
2023-04-14T02:28:46.843Z,1.80
2023-04-14T02:31:23.736Z,2.10
2023-04-14T02:36:29.029Z,1.30
2023-04-14T02:39:01.399Z,2.00
2023-04-14T02:41:32.198Z,1.50
2023-04-14T02:44:06.441Z,2.00
2023-04-14T02:46:40.298Z,1.70
2023-04-14T02:49:13.237Z,1.50
2023-04-14T02:51:43.567Z,1.60
2023-04-14T02:54:16.024Z,1.20
2023-04-14T02:56:46.863Z,1.30
2023-04-14T02:59:19.824Z,1.20
2023-04-14T03:01:50.473Z,1.70
2023-04-14T03:04:21.959Z,1.70
2023-04-14T03:06:53.162Z,1.60
2023-04-14T03:09:23.720Z,1.50
2023-04-14T03:11:55.478Z,1.80
2023-04-14T03:14:26.566Z,1.40
2023-04-14T03:16:58.567Z,1.30
2023-04-14T03:19:30.287Z,1.60
2023-04-14T03:22:00.766Z,1.50
2023-04-14T03:24:32.501Z,2.20
2023-04-14T03:27:08.277Z,1.20
2023-04-14T03:29:42.875Z,1.40
2023-04-14T03:32:13.786Z,1.70
2023-04-14T03:34:46.173Z,1.80
2023-04-14T03:37:18.322Z,1.20
2023-04-14T03:39:49.442Z,2.10
2023-04-14T03:42:21.623Z,1.20
2023-04-14T03:44:54.112Z,1.70
2023-04-14T03:47:26.760Z,1.90
2023-04-14T03:50:00.943Z,1.60
2023-04-14T03:52:33.885Z,1.50
2023-04-14T03:55:06.689Z,1.30
2023-04-14T03:57:39.985Z,1.30
2023-04-14T04:00:13.193Z,1.50
2023-04-14T04:02:44.752Z,1.50
2023-04-14T04:05:15.407Z,1.30
2023-04-14T04:07:46.199Z,1.40
2023-04-14T04:10:16.609Z,1.30
2023-04-14T04:12:49.438Z,1.20
2023-04-14T04:15:21.144Z,1.30
2023-04-14T04:17:53.320Z,1.10
2023-04-14T04:20:24.419Z,1.40
2023-04-14T04:22:56.459Z,1.10
2023-04-14T04:25:26.886Z,1.50
2023-04-14T04:27:57.651Z,0.90
2023-04-14T04:30:29.883Z,0.80
2023-04-14T04:33:00.784Z,1.10
2023-04-14T04:35:31.491Z,0.80
2023-04-14T04:38:01.738Z,0.80
2023-04-14T04:40:37.848Z,0.90
2023-04-14T04:43:08.061Z,1.00
2023-04-14T04:46:03.328Z,0.80
2023-04-14T04:48:33.614Z,0.70
2023-04-14T04:51:04.638Z,0.50
2023-04-14T04:53:35.165Z,1.00
2023-04-14T04:56:06.725Z,1.00
2023-04-14T04:58:39.153Z,1.10
2023-04-14T05:01:15.115Z,2.00
2023-04-14T05:03:45.272Z,0.90
2023-04-14T05:06:16.325Z,0.90
2023-04-14T05:08:46.623Z,0.60
2023-04-14T05:11:16.893Z,1.20
2023-04-14T05:13:47.063Z,0.90
2023-04-14T05:16:18.082Z,0.40
2023-04-14T05:18:48.932Z,0.40
2023-04-14T05:21:19.506Z,0.50
2023-04-14T05:23:50.319Z,0.40
2023-04-14T05:26:48.172Z,0.60
2023-04-14T05:29:11.478Z,0.60
2023-04-14T05:31:42.228Z,0.60
2023-04-14T05:34:12.423Z,0.70
2023-04-14T05:36:42.907Z,0.60
2023-04-14T05:39:13.344Z,0.50
2023-04-14T05:41:47.087Z,0.40
2023-04-14T05:44:17.597Z,0.30
2023-04-14T05:46:48.886Z,0.40
2023-04-14T05:49:19.238Z,0.40
2023-04-14T05:51:49.595Z,0.40
2023-04-14T05:54:19.887Z,0.40
2023-04-14T05:56:50.557Z,0.60
2023-04-14T05:59:21.928Z,0.50
2023-04-14T06:01:52.184Z,0.60
2023-04-14T06:04:23.154Z,0.30
2023-04-14T06:06:54.746Z,0.40
2023-04-14T06:09:25.648Z,0.40
2023-04-14T06:11:56.560Z,0.40
2023-04-14T06:14:27.741Z,0.40
2023-04-14T06:16:58.019Z,0.50
2023-04-14T06:19:28.472Z,1.50
2023-04-14T06:21:59.034Z,0.50
2023-04-14T06:24:29.611Z,1.00
2023-04-14T06:26:59.921Z,0.70
2023-04-14T06:29:31.240Z,0.70
2023-04-14T06:32:02.110Z,0.50
2023-04-14T06:34:33.008Z,0.50
2023-04-14T06:37:03.708Z,0.40
2023-04-14T06:39:34.197Z,0.60
2023-04-14T06:42:04.872Z,0.80
2023-04-14T06:44:35.417Z,0.40
2023-04-14T06:47:09.251Z,0.70
2023-04-14T06:49:40.768Z,0.60
2023-04-14T06:52:11.035Z,0.50
2023-04-14T06:54:41.918Z,0.80
2023-04-14T06:57:12.465Z,0.60
2023-04-14T06:59:42.709Z,0.60
2023-04-14T07:02:13.812Z,1.00
2023-04-14T07:04:47.279Z,0.70
2023-04-14T07:07:17.950Z,0.80
2023-04-14T07:09:48.700Z,0.70
2023-04-14T07:12:19.748Z,0.40
2023-04-14T07:14:51.840Z,0.50
2023-04-14T07:17:22.256Z,0.60
2023-04-14T07:19:52.614Z,0.40
2023-04-14T07:22:22.900Z,0.60
2023-04-14T07:24:54.945Z,0.60
2023-04-14T07:27:28.479Z,1.00
2023-04-14T07:29:59.270Z,0.60
2023-04-14T07:32:29.623Z,0.50
2023-04-14T07:35:05.609Z,0.70
2023-04-14T07:37:35.874Z,0.70
2023-04-14T07:40:08.543Z,0.90
2023-04-14T07:42:39.144Z,1.40
2023-04-14T07:45:14.101Z,0.50
2023-04-14T07:47:44.684Z,0.60
2023-04-14T07:50:17.173Z,0.80
2023-04-14T07:52:52.459Z,0.60
2023-04-14T07:55:22.722Z,0.80
2023-04-14T07:57:56.571Z,1.10
2023-04-14T08:00:27.330Z,0.60
2023-04-14T08:02:58.713Z,1.30
2023-04-14T08:05:34.716Z,1.60
2023-04-14T08:08:08.266Z,1.60
2023-04-14T08:10:39.684Z,1.50
2023-04-14T08:13:10.219Z,0.70
2023-04-14T08:15:41.448Z,0.90
2023-04-14T08:18:14.991Z,1.80
2023-04-14T08:20:45.529Z,1.00
2023-04-14T08:23:20.663Z,1.50
2023-04-14T08:25:51.336Z,0.70
2023-04-14T08:28:21.990Z,0.90
2023-04-14T08:30:52.368Z,1.20
2023-04-14T08:33:23.845Z,1.40
2023-04-14T08:36:00.430Z,1.00
2023-04-14T08:38:32.328Z,1.20
2023-04-14T08:41:07.806Z,1.70
2023-04-14T08:43:39.919Z,1.00
2023-04-14T08:46:12.061Z,1.30
2023-04-14T08:48:42.667Z,1.50
2023-04-14T08:51:18.620Z,1.40
2023-04-14T08:53:51.717Z,1.40
2023-04-14T08:56:23.348Z,1.00
2023-04-14T08:58:53.973Z,1.90
2023-04-14T09:01:24.720Z,1.50
2023-04-14T09:03:56.302Z,1.40
2023-04-14T09:06:30.792Z,2.60
2023-04-14T09:09:07.312Z,1.30
2023-04-14T09:11:38.160Z,2.20
2023-04-14T09:14:10.227Z,1.60
2023-04-14T09:16:41.153Z,1.10
2023-04-14T09:19:12.289Z,1.40
2023-04-14T09:21:53.427Z,1.00
2023-04-14T09:24:34.151Z,1.40
2023-04-14T09:27:06.588Z,1.50
2023-04-14T09:29:40.106Z,1.20
2023-04-14T09:32:14.471Z,2.40
2023-04-14T09:35:01.816Z,1.60
2023-04-14T09:37:48.808Z,1.10
2023-04-14T09:40:31.201Z,1.50
2023-04-14T09:43:02.801Z,1.50
2023-04-14T09:45:46.315Z,1.30
2023-04-14T09:48:26.336Z,0.90
2023-04-14T09:51:06.359Z,1.10
2023-04-14T09:53:37.316Z,0.90
2023-04-14T09:56:11.922Z,1.40
2023-04-14T09:58:44.389Z,1.70
2023-04-14T10:01:16.287Z,1.90
2023-04-14T10:03:48.177Z,1.70
2023-04-14T10:06:20.914Z,1.10
2023-04-14T10:08:52.904Z,1.30
2023-04-14T10:11:27.313Z,1.00
2023-04-14T10:14:01.574Z,1.50
2023-04-14T10:16:32.965Z,1.80
2023-04-14T10:19:04.323Z,1.10
2023-04-14T10:21:35.445Z,1.30
2023-04-14T10:24:05.961Z,0.90
2023-04-14T10:26:36.377Z,0.70
2023-04-14T10:29:06.650Z,1.40
2023-04-14T10:31:39.707Z,0.90
2023-04-14T10:34:11.818Z,1.00
2023-04-14T10:36:42.719Z,1.10
2023-04-14T10:39:13.735Z,1.40
2023-04-14T10:41:48.180Z,1.20
2023-04-14T10:44:31.473Z,1.30
2023-04-14T10:47:02.736Z,1.10
2023-04-14T10:49:34.152Z,1.20
2023-04-14T10:52:08.766Z,1.10
2023-04-14T10:54:54.040Z,1.10
2023-04-14T10:57:25.206Z,1.30
2023-04-14T10:59:58.342Z,0.70
2023-04-14T11:02:29.668Z,1.60
2023-04-14T11:05:04.528Z,0.90
2023-04-14T11:07:45.056Z,1.10
2023-04-14T11:10:33.281Z,0.90
2023-04-14T11:13:08.730Z,0.80
2023-04-14T11:15:50.672Z,1.00
2023-04-14T11:18:32.290Z,0.90
2023-04-14T11:21:10.050Z,1.10
2023-04-14T11:23:40.657Z,1.40
2023-04-14T11:26:11.851Z,1.10
2023-04-14T11:28:46.019Z,1.40
2023-04-14T11:31:18.476Z,2.00
2023-04-14T11:33:59.475Z,1.10
2023-04-14T11:36:30.609Z,1.00
2023-04-14T11:39:02.040Z,0.90
2023-04-14T11:41:32.812Z,0.90
2023-04-14T11:44:03.696Z,1.10
2023-04-14T11:46:34.566Z,0.80
2023-04-14T11:49:06.544Z,0.90
2023-04-14T11:51:38.377Z,0.80
2023-04-14T11:54:09.102Z,0.80
2023-04-14T11:56:40.266Z,0.80
2023-04-14T11:59:12.276Z,1.30
2023-04-14T12:01:52.729Z,0.90
2023-04-14T12:04:24.752Z,0.60
2023-04-14T12:06:57.904Z,1.20
2023-04-14T12:09:34.789Z,0.70
2023-04-14T12:12:12.500Z,1.40
2023-04-14T12:14:44.774Z,1.00
2023-04-14T12:17:16.748Z,1.30
2023-04-14T12:19:50.414Z,1.00
2023-04-14T12:22:26.751Z,1.00
2023-04-14T12:25:01.705Z,1.30
2023-04-14T12:27:36.081Z,1.20
2023-04-14T12:30:10.077Z,2.40
2023-04-14T12:32:44.261Z,2.40
2023-04-14T12:35:16.815Z,1.30
2023-04-14T12:37:52.133Z,0.90
2023-04-14T12:40:40.493Z,1.00
2023-04-14T12:43:11.923Z,1.00
2023-04-14T12:45:47.032Z,1.50
2023-04-14T12:48:21.805Z,1.40
2023-04-14T12:51:07.136Z,1.00
2023-04-14T12:53:38.036Z,1.00
2023-04-14T12:56:11.445Z,1.20
2023-04-14T12:58:46.341Z,1.20
2023-04-14T13:01:18.702Z,1.60
2023-04-14T13:03:52.217Z,1.10
2023-04-14T13:06:24.560Z,1.40
2023-04-14T13:08:55.817Z,1.40
2023-04-14T13:11:26.432Z,1.20
2023-04-14T13:13:57.042Z,1.10
2023-04-14T13:16:29.918Z,1.60
2023-04-14T13:19:04.375Z,1.60
2023-04-14T13:21:36.031Z,1.40
2023-04-14T13:24:07.872Z,1.40
2023-04-14T13:26:46.698Z,1.30
2023-04-14T13:29:18.348Z,1.40
2023-04-14T13:31:49.225Z,1.70
2023-04-14T13:34:19.790Z,1.50
2023-04-14T13:36:51.468Z,2.20
2023-04-14T13:39:24.218Z,1.00
2023-04-14T13:41:56.588Z,1.40
2023-04-14T13:44:28.724Z,1.00
2023-04-14T13:47:02.088Z,1.00
2023-04-14T13:49:38.196Z,0.90
2023-04-14T13:52:12.173Z,0.70
2023-04-14T13:54:47.848Z,0.70
2023-04-14T13:57:22.905Z,1.10
2023-04-14T14:00:04.459Z,0.90
2023-04-14T14:02:40.463Z,0.90
2023-04-14T14:05:17.955Z,0.90
2023-04-14T14:07:52.909Z,1.30
2023-04-14T14:10:32.933Z,1.20
2023-04-14T14:13:10.381Z,0.80
2023-04-14T14:15:40.747Z,1.10
2023-04-14T14:18:14.034Z,0.70
2023-04-14T14:20:49.780Z,0.90
2023-04-14T14:23:26.448Z,1.50
2023-04-14T14:26:02.453Z,1.40
2023-04-14T14:28:33.508Z,1.20
2023-04-14T14:31:06.376Z,0.90
2023-04-14T14:33:38.433Z,0.90
2023-04-14T14:36:10.953Z,0.80
2023-04-14T14:38:43.292Z,0.70
2023-04-14T14:41:15.384Z,0.60
2023-04-14T14:43:49.537Z,0.80
2023-04-14T14:46:23.001Z,0.50
2023-04-14T14:48:53.529Z,0.60
2023-04-14T14:51:24.711Z,1.00
2023-04-14T14:54:09.198Z,0.90
2023-04-14T14:56:42.693Z,0.60
2023-04-14T14:59:13.011Z,0.50
2023-04-14T15:01:49.252Z,0.70
2023-04-14T15:04:21.573Z,0.70
2023-04-14T15:06:52.693Z,0.70
2023-04-14T15:09:23.445Z,0.70
2023-04-14T15:11:55.442Z,0.70
2023-04-14T15:14:29.936Z,0.70
2023-04-14T15:17:00.559Z,0.80
2023-04-14T15:19:36.515Z,0.90
2023-04-14T15:22:22.528Z,1.00
2023-04-14T15:24:54.829Z,0.70
2023-04-14T15:27:25.754Z,0.70
2023-04-14T15:29:59.252Z,0.70
2023-04-14T15:32:30.294Z,0.70
2023-04-14T15:35:03.433Z,0.90
2023-04-14T15:37:34.838Z,1.20
2023-04-14T15:40:07.043Z,1.10
2023-04-14T15:42:40.196Z,1.40
2023-04-14T15:45:12.662Z,1.00
2023-04-14T15:47:44.423Z,1.00
2023-04-14T15:50:18.941Z,1.30
2023-04-14T15:52:51.851Z,0.80
2023-04-14T15:55:25.664Z,1.10
2023-04-14T15:57:56.720Z,0.70
2023-04-14T16:00:29.529Z,0.50
2023-04-14T16:03:01.734Z,0.90
2023-04-14T16:05:37.862Z,0.50
2023-04-14T16:08:09.470Z,1.10
2023-04-14T16:10:42.998Z,1.10
2023-04-14T16:13:14.450Z,0.90
2023-04-14T16:15:45.843Z,1.30
2023-04-14T16:18:18.225Z,1.00
2023-04-14T16:20:51.192Z,0.60
2023-04-14T16:23:22.973Z,1.00
2023-04-14T16:25:54.501Z,0.70
2023-04-14T16:28:28.533Z,0.80
2023-04-14T16:31:09.460Z,0.60
2023-04-14T16:33:42.779Z,1.10
2023-04-14T16:36:13.641Z,1.60
2023-04-14T16:38:44.943Z,1.00
2023-04-14T16:41:23.105Z,0.90
2023-04-14T16:43:54.179Z,0.70
2023-04-14T16:46:26.100Z,2.90
2023-04-14T16:49:02.946Z,1.40
2023-04-14T16:51:38.571Z,1.80
2023-04-14T16:54:10.885Z,1.30
2023-04-14T16:56:46.169Z,0.90
2023-04-14T16:59:16.476Z,0.70
2023-04-14T17:01:47.203Z,1.10
2023-04-14T17:04:23.372Z,0.80
2023-04-14T17:09:24.783Z,3.30
2023-04-14T17:11:56.957Z,1.00
2023-04-14T17:14:27.938Z,1.00
2023-04-14T17:17:01.488Z,1.00
2023-04-14T17:19:47.805Z,1.20
2023-04-14T17:22:31.485Z,1.20
2023-04-14T17:25:12.429Z,1.10
2023-04-14T17:27:43.412Z,0.60
2023-04-14T17:30:18.488Z,0.70
2023-04-14T17:32:51.680Z,0.70
2023-04-14T17:35:37.469Z,1.10
2023-04-14T17:38:14.762Z,0.80
2023-04-14T17:40:46.679Z,1.00
2023-04-14T17:43:20.995Z,1.00
2023-04-14T17:46:10.182Z,0.50
2023-04-14T17:48:43.455Z,0.60
2023-04-14T17:51:15.219Z,0.80
2023-04-14T17:53:49.812Z,0.50
2023-04-14T17:56:21.773Z,0.40
2023-04-14T18:01:40.477Z,0.80
2023-04-14T18:04:12.638Z,0.50
2023-04-14T18:06:53.535Z,0.70
2023-04-14T18:09:29.011Z,0.80
2023-04-14T18:12:00.374Z,0.50
2023-04-14T18:14:38.252Z,0.70
2023-04-14T18:17:09.962Z,0.70
2023-04-14T18:19:42.720Z,1.10
2023-04-14T18:22:17.392Z,0.80
2023-04-14T18:25:10.160Z,0.60
2023-04-14T18:30:18.361Z,0.90
2023-04-14T18:32:59.620Z,0.80
2023-04-14T18:35:34.320Z,1.30
2023-04-14T18:38:15.281Z,0.70
2023-04-14T18:40:48.666Z,1.10
2023-04-14T18:43:21.788Z,0.70
2023-04-14T18:46:23.152Z,0.70
2023-04-14T18:48:58.226Z,1.50
2023-04-14T18:51:36.870Z,0.90
2023-04-14T18:54:08.088Z,0.70
2023-04-14T18:56:49.388Z,0.80
2023-04-14T18:59:38.152Z,0.60
2023-04-14T19:02:13.971Z,0.90
2023-04-14T19:04:48.545Z,1.10
2023-04-14T19:07:22.244Z,1.50
2023-04-14T19:09:53.185Z,1.60
2023-04-14T19:12:28.361Z,1.30
2023-04-14T19:15:04.707Z,1.60
2023-04-14T19:17:36.795Z,1.20
2023-04-14T19:20:12.067Z,2.00
2023-04-14T19:22:47.001Z,1.40
2023-04-14T19:25:20.744Z,2.70
2023-04-14T19:28:02.111Z,2.10
2023-04-14T19:30:34.652Z,2.40
2023-04-14T19:33:08.549Z,1.60
2023-04-14T19:36:09.476Z,2.80
2023-04-14T19:38:48.942Z,2.10
2023-04-14T19:41:19.651Z,1.70
2023-04-14T19:43:57.073Z,2.30
2023-04-14T19:46:36.975Z,2.00
2023-04-14T19:49:11.672Z,2.00
2023-04-14T19:51:43.245Z,1.90
2023-04-14T19:54:25.088Z,1.70
2023-04-14T19:56:56.244Z,2.10
2023-04-14T19:59:42.658Z,1.70
2023-04-14T20:02:14.033Z,1.60
2023-04-14T20:04:45.172Z,1.60
2023-04-14T20:07:17.103Z,1.80
2023-04-14T20:09:48.578Z,2.00
2023-04-14T20:12:21.317Z,2.30
2023-04-14T20:14:54.399Z,1.80
2023-04-14T20:17:29.733Z,2.60
2023-04-14T20:20:02.750Z,2.50
2023-04-14T20:22:34.818Z,2.00
2023-04-14T20:25:08.240Z,2.70
2023-04-14T20:27:39.675Z,3.00
2023-04-14T20:30:13.183Z,2.60
2023-04-14T20:32:47.742Z,3.50
2023-04-14T20:35:22.397Z,2.60
2023-04-14T20:37:53.679Z,2.80
2023-04-14T20:40:25.770Z,2.30
2023-04-14T20:42:58.856Z,2.10
2023-04-14T20:45:29.678Z,3.60
2023-04-14T20:48:00.958Z,2.30
2023-04-14T20:50:33.306Z,3.30
2023-04-14T20:53:03.811Z,3.00
2023-04-14T20:55:35.561Z,2.80
2023-04-14T20:58:07.673Z,2.60
2023-04-14T21:00:38.902Z,2.90
2023-04-14T21:03:12.447Z,2.40
2023-04-14T21:05:46.228Z,3.10
2023-04-14T21:08:20.922Z,2.80
2023-04-14T21:11:15.802Z,3.30
2023-04-14T21:15:28.553Z,2.60
2023-04-14T21:16:37.062Z,3.20
2023-04-14T21:19:10.270Z,3.10
2023-04-14T21:21:46.897Z,2.20
2023-04-14T21:27:21.946Z,2.20
2023-04-14T21:29:55.807Z,2.70
2023-04-14T21:32:26.236Z,3.20
2023-04-14T21:34:56.727Z,2.40
2023-04-14T21:37:27.529Z,2.50
2023-04-14T21:39:58.918Z,2.70
2023-04-14T21:42:32.376Z,2.70
2023-04-14T21:45:07.610Z,2.70
2023-04-14T21:47:41.754Z,2.40
2023-04-14T21:50:15.364Z,2.70
2023-04-14T21:52:47.148Z,2.50
2023-04-14T21:55:21.528Z,2.70
2023-04-14T21:57:57.329Z,2.10
2023-04-14T22:00:29.488Z,1.80
2023-04-14T22:03:01.896Z,3.10
2023-04-14T22:05:42.091Z,2.40
2023-04-14T22:08:12.546Z,1.80
2023-04-14T22:10:43.476Z,2.80
2023-04-14T22:13:14.677Z,2.90
2023-04-14T22:15:46.893Z,2.70
2023-04-14T22:18:23.775Z,2.30
2023-04-14T22:20:54.697Z,2.00
2023-04-14T22:23:25.910Z,2.70
2023-04-14T22:25:56.846Z,2.80
2023-04-14T22:28:28.213Z,2.40
2023-04-14T22:31:00.816Z,3.00
2023-04-14T22:33:34.267Z,2.20
2023-04-14T22:36:06.753Z,2.20
2023-04-14T22:38:37.114Z,2.20
2023-04-14T22:41:07.913Z,2.10
2023-04-14T22:43:38.476Z,2.70
2023-04-14T22:46:09.140Z,2.70
2023-04-14T22:48:39.758Z,2.60
2023-04-14T22:51:10.320Z,3.30
2023-04-14T22:53:41.813Z,2.20
2023-04-14T22:56:12.975Z,3.30
2023-04-14T22:58:43.296Z,3.00
2023-04-14T23:01:21.785Z,3.50
2023-04-14T23:03:53.480Z,2.90
2023-04-14T23:06:29.144Z,2.80
2023-04-14T23:09:02.117Z,2.50
2023-04-14T23:11:33.396Z,2.30
2023-04-14T23:14:09.281Z,2.60
2023-04-14T23:16:41.192Z,2.50
2023-04-14T23:19:13.920Z,3.10
2023-04-14T23:21:44.942Z,2.90
2023-04-14T23:24:16.244Z,2.30
2023-04-14T23:26:47.025Z,2.30
2023-04-14T23:29:20.662Z,2.90
2023-04-14T23:31:51.703Z,2.60
2023-04-14T23:34:22.021Z,3.00
2023-04-14T23:36:52.320Z,3.20
2023-04-14T23:39:22.940Z,2.40
2023-04-14T23:41:53.430Z,2.30
2023-04-14T23:44:23.962Z,3.00
2023-04-14T23:46:54.957Z,2.80
2023-04-14T23:49:35.116Z,2.20
2023-04-14T23:52:07.927Z,4.00
2023-04-14T23:54:38.706Z,3.60
2023-04-14T23:57:09.219Z,2.60
2023-04-14T23:59:39.593Z,3.20
